createdAt,value
2019-03-12T00:00:53.614Z,97.64
2019-03-12T00:01:53.545Z,97.85
2019-03-12T00:02:53.482Z,97.17
2019-03-12T00:03:53.477Z,97.38
2019-03-12T00:04:53.487Z,97.07
2019-03-12T00:05:53.456Z,97.17
2019-03-12T00:06:53.552Z,96.66
2019-03-12T00:07:53.430Z,96.30
2019-03-12T00:08:53.422Z,97.13
2019-03-12T00:09:53.993Z,96.20
2019-03-12T00:10:53.401Z,96.41
2019-03-12T00:11:53.484Z,95.78
2019-03-12T00:13:00.048Z,95.78
2019-03-12T00:13:53.413Z,95.47
2019-03-12T00:14:53.407Z,94.74
2019-03-12T00:15:53.373Z,95.05
2019-03-12T00:16:53.373Z,94.64
2019-03-12T00:17:53.394Z,94.32
2019-03-12T00:18:53.319Z,94.43
2019-03-12T00:19:53.302Z,94.22
2019-03-12T00:20:53.293Z,94.43
2019-03-12T00:21:53.309Z,94.01
2019-03-12T00:22:53.272Z,93.70
2019-03-12T00:23:53.444Z,93.60
2019-03-12T00:24:53.281Z,93.91
2019-03-12T00:25:53.242Z,93.95
2019-03-12T00:26:53.256Z,93.70
2019-03-12T00:27:53.235Z,93.74
2019-03-12T00:28:53.784Z,93.74
2019-03-12T00:29:53.264Z,94.26
2019-03-12T00:30:53.179Z,94.26
2019-03-12T00:31:53.173Z,94.47
2019-03-12T00:32:55.605Z,94.47
2019-03-12T00:33:53.242Z,94.57
2019-03-12T00:34:53.150Z,94.47
2019-03-12T00:35:53.204Z,94.51
2019-03-12T00:36:53.161Z,94.57
2019-03-12T00:37:53.114Z,94.31
2019-03-12T00:38:53.097Z,94.41
2019-03-12T00:39:53.086Z,94.20
2019-03-12T00:40:53.089Z,93.68
2019-03-12T00:41:53.151Z,94.04
2019-03-12T00:42:53.052Z,94.24
2019-03-12T00:43:53.043Z,94.45
2019-03-12T00:44:53.035Z,94.45
2019-03-12T00:45:53.019Z,94.87
2019-03-12T00:46:53.011Z,94.66
2019-03-12T00:47:53.129Z,94.87
2019-03-12T00:48:53.003Z,95.02
2019-03-12T00:49:52.985Z,95.75
2019-03-12T00:50:52.966Z,95.64
2019-03-12T00:51:52.953Z,95.75
2019-03-12T00:52:52.946Z,95.75
2019-03-12T00:53:53.181Z,95.64
2019-03-12T00:54:52.923Z,95.33
2019-03-12T00:55:52.913Z,95.75
2019-03-12T00:56:52.916Z,95.64
2019-03-12T00:57:52.968Z,95.75
2019-03-12T00:58:52.883Z,94.92
2019-03-12T00:59:56.223Z,95.02
2019-03-12T01:00:52.859Z,95.33
2019-03-12T01:01:52.846Z,95.64
2019-03-12T01:02:52.849Z,95.02
2019-03-12T01:03:52.883Z,94.49
2019-03-12T01:04:52.821Z,94.70
2019-03-12T01:05:52.800Z,94.60
2019-03-12T01:06:52.793Z,94.49
2019-03-12T01:07:52.785Z,94.29
2019-03-12T01:08:52.840Z,94.18
2019-03-12T01:09:52.764Z,94.18
2019-03-12T01:10:52.995Z,94.49
2019-03-12T01:11:52.791Z,94.49
2019-03-12T01:12:52.747Z,94.60
2019-03-12T01:13:52.785Z,94.45
2019-03-12T01:14:52.714Z,94.49
2019-03-12T01:15:52.698Z,94.45
2019-03-12T01:16:52.689Z,94.56
2019-03-12T01:17:52.674Z,94.35
2019-03-12T01:18:52.676Z,94.35
2019-03-12T01:19:52.730Z,94.14
2019-03-12T01:20:52.709Z,94.24
2019-03-12T01:21:52.635Z,94.35
2019-03-12T01:22:52.621Z,94.24
2019-03-12T01:23:52.612Z,94.45
2019-03-12T01:24:52.593Z,94.41
2019-03-12T01:25:52.603Z,94.72
2019-03-12T01:26:52.649Z,94.57
2019-03-12T01:27:52.681Z,94.41
2019-03-12T01:28:52.552Z,93.95
2019-03-12T01:29:52.550Z,93.95
2019-03-12T01:30:52.533Z,93.74
2019-03-12T01:31:53.191Z,93.85
2019-03-12T01:32:52.512Z,93.74
2019-03-12T01:33:52.631Z,93.85
2019-03-12T01:34:52.489Z,93.80
2019-03-12T01:35:52.515Z,93.70
2019-03-12T01:36:52.466Z,93.60
2019-03-12T01:37:52.457Z,92.76
2019-03-12T01:38:52.445Z,92.24
2019-03-12T01:39:52.503Z,92.86
2019-03-12T01:40:52.429Z,92.86
2019-03-12T01:41:52.418Z,92.24
2019-03-12T01:42:52.703Z,92.66
2019-03-12T01:43:52.422Z,92.72
2019-03-12T01:44:52.414Z,92.76
2019-03-12T01:45:52.453Z,92.10
2019-03-12T01:46:52.369Z,92.72
2019-03-12T01:47:52.355Z,92.61
2019-03-12T01:48:52.427Z,92.66
2019-03-12T01:49:52.335Z,92.66
2019-03-12T01:50:52.413Z,92.61
2019-03-12T01:51:52.317Z,92.30
2019-03-12T01:52:52.348Z,92.41
2019-03-12T01:53:52.299Z,92.51
2019-03-12T01:54:52.289Z,92.61
2019-03-12T01:55:52.269Z,92.41
2019-03-12T01:56:52.321Z,92.51
2019-03-12T01:57:52.252Z,92.20
2019-03-12T01:58:52.268Z,92.51
2019-03-12T01:59:52.233Z,92.20
2019-03-12T02:00:52.231Z,92.41
2019-03-12T02:01:52.354Z,92.30
2019-03-12T02:02:52.195Z,92.20
2019-03-12T02:03:52.204Z,91.74
2019-03-12T02:04:52.177Z,91.53
2019-03-12T02:05:52.166Z,91.58
2019-03-12T02:06:52.150Z,91.12
2019-03-12T02:07:52.210Z,90.95
2019-03-12T02:08:52.126Z,90.91
2019-03-12T02:09:52.118Z,91.12
2019-03-12T02:10:52.110Z,90.81
2019-03-12T02:11:52.123Z,90.60
2019-03-12T02:12:52.105Z,91.12
2019-03-12T02:13:52.146Z,91.12
2019-03-12T02:14:52.196Z,91.02
2019-03-12T02:15:52.053Z,90.70
2019-03-12T02:16:52.051Z,90.81
2019-03-12T02:17:52.044Z,90.08
2019-03-12T02:18:52.167Z,89.87
2019-03-12T02:19:52.011Z,89.77
2019-03-12T02:20:52.028Z,89.36
2019-03-12T02:21:52.016Z,89.67
2019-03-12T02:22:51.994Z,89.67
2019-03-12T02:23:52.045Z,89.67
2019-03-12T02:24:53.163Z,89.56
2019-03-12T02:25:51.945Z,89.31
2019-03-12T02:26:51.941Z,89.15
2019-03-12T02:27:51.926Z,89.36
2019-03-12T02:28:51.927Z,89.04
2019-03-12T02:29:51.973Z,89.25
2019-03-12T02:30:51.902Z,89.21
2019-03-12T02:31:51.926Z,89.04
2019-03-12T02:32:51.876Z,89.04
2019-03-12T02:33:51.883Z,89.15
2019-03-12T02:34:51.872Z,89.21
2019-03-12T02:35:51.944Z,88.90
2019-03-12T02:36:51.907Z,89.11
2019-03-12T02:37:51.821Z,88.90
2019-03-12T02:38:51.818Z,88.84
2019-03-12T02:39:51.799Z,88.79
2019-03-12T02:40:52.451Z,88.90
2019-03-12T02:41:51.782Z,89.11
2019-03-12T02:42:51.854Z,89.00
2019-03-12T02:43:51.760Z,89.21
2019-03-12T02:44:51.743Z,88.69
2019-03-12T02:45:51.744Z,89.00
2019-03-12T02:46:51.814Z,88.90
2019-03-12T02:47:51.754Z,89.00
2019-03-12T02:48:51.699Z,88.48
2019-03-12T02:49:51.693Z,88.59
2019-03-12T02:50:51.713Z,88.48
2019-03-12T02:51:51.686Z,88.73
2019-03-12T02:52:51.783Z,88.48
2019-03-12T02:53:51.655Z,88.79
2019-03-12T02:54:51.643Z,89.11
2019-03-12T02:55:51.635Z,89.00
2019-03-12T02:56:51.635Z,88.59
2019-03-12T02:57:51.633Z,88.69
2019-03-12T02:58:51.652Z,88.79
2019-03-12T02:59:51.581Z,89.00
2019-03-12T03:00:51.570Z,89.00
2019-03-12T03:01:51.565Z,89.11
2019-03-12T03:02:51.572Z,89.21
2019-03-12T03:03:51.677Z,88.90
2019-03-12T03:04:54.214Z,89.11
2019-03-12T03:05:51.517Z,89.11
2019-03-12T03:06:51.514Z,89.11
2019-03-12T03:07:51.570Z,88.44
2019-03-12T03:08:51.497Z,88.34
2019-03-12T03:09:51.694Z,88.79
2019-03-12T03:10:51.500Z,88.85
2019-03-12T03:11:51.536Z,88.79
2019-03-12T03:12:51.509Z,88.85
2019-03-12T03:13:51.442Z,88.44
2019-03-12T03:14:51.449Z,88.65
2019-03-12T03:15:51.509Z,88.23
2019-03-12T03:16:51.434Z,88.23
2019-03-12T03:17:51.419Z,88.85
2019-03-12T03:18:51.404Z,88.02
2019-03-12T03:19:51.383Z,88.96
2019-03-12T03:20:51.466Z,88.75
2019-03-12T03:21:51.353Z,88.54
2019-03-12T03:22:51.336Z,88.69
2019-03-12T03:23:51.319Z,88.48
2019-03-12T03:24:51.320Z,88.85
2019-03-12T03:25:51.307Z,88.44
2019-03-12T03:26:52.392Z,88.02
2019-03-12T03:27:51.297Z,88.44
2019-03-12T03:28:51.451Z,88.13
2019-03-12T03:29:51.259Z,88.65
2019-03-12T03:30:51.339Z,88.65
2019-03-12T03:31:51.246Z,88.44
2019-03-12T03:32:51.246Z,88.65
2019-03-12T03:33:51.244Z,88.13
2019-03-12T03:34:51.354Z,88.65
2019-03-12T03:35:51.204Z,88.65
2019-03-12T03:36:51.221Z,88.54
2019-03-12T03:37:51.231Z,88.65
2019-03-12T03:38:51.171Z,88.44
2019-03-12T03:39:51.165Z,88.54
2019-03-12T03:40:51.214Z,89.17
2019-03-12T03:41:51.149Z,88.85
2019-03-12T03:42:51.128Z,88.85
2019-03-12T03:43:54.068Z,89.27
2019-03-12T03:44:51.106Z,89.17
2019-03-12T03:45:51.179Z,88.75
2019-03-12T03:46:51.082Z,89.06
2019-03-12T03:47:51.075Z,88.75
2019-03-12T03:48:51.066Z,88.96
2019-03-12T03:49:51.046Z,89.27
2019-03-12T03:50:51.076Z,88.65
2019-03-12T03:51:51.119Z,88.65
2019-03-12T03:52:51.145Z,88.44
2019-03-12T03:53:51.004Z,88.65
2019-03-12T03:54:50.995Z,88.85
2019-03-12T03:55:50.980Z,88.44
2019-03-12T03:56:51.003Z,88.85
2019-03-12T03:57:51.020Z,88.71
2019-03-12T03:58:51.159Z,88.82
2019-03-12T03:59:50.956Z,88.02
2019-03-12T04:00:50.928Z,88.71
2019-03-12T04:01:50.912Z,88.54
2019-03-12T04:02:50.924Z,88.92
2019-03-12T04:03:50.900Z,88.75
2019-03-12T04:04:50.963Z,88.75
2019-03-12T04:05:50.871Z,88.65
2019-03-12T04:06:50.892Z,88.61
2019-03-12T04:07:50.874Z,88.54
2019-03-12T04:08:50.846Z,88.65
2019-03-12T04:09:50.858Z,88.65
2019-03-12T04:10:50.894Z,88.44
2019-03-12T04:11:50.808Z,88.61
2019-03-12T04:12:51.120Z,88.75
2019-03-12T04:13:50.800Z,88.65
2019-03-12T04:14:50.791Z,88.75
2019-03-12T04:15:50.765Z,88.82
2019-03-12T04:16:50.862Z,87.82
2019-03-12T04:17:50.749Z,87.88
2019-03-12T04:18:50.729Z,88.20
2019-03-12T04:19:50.751Z,88.65
2019-03-12T04:20:50.776Z,87.99
2019-03-12T04:21:50.706Z,87.57
2019-03-12T04:22:50.705Z,87.88
2019-03-12T04:23:50.680Z,87.68
2019-03-12T04:24:50.665Z,88.02
2019-03-12T04:25:50.656Z,87.82
2019-03-12T04:26:50.724Z,87.71
2019-03-12T04:27:50.632Z,87.78
2019-03-12T04:28:50.626Z,87.68
2019-03-12T04:29:50.617Z,87.16
2019-03-12T04:30:50.624Z,87.30
2019-03-12T04:31:50.660Z,87.16
2019-03-12T04:32:50.612Z,87.05
2019-03-12T04:33:50.594Z,86.95
2019-03-12T04:34:50.560Z,87.16
2019-03-12T04:35:50.551Z,87.16
2019-03-12T04:36:50.544Z,87.16
2019-03-12T04:37:50.634Z,86.64
2019-03-12T04:38:50.526Z,86.54
2019-03-12T04:39:50.503Z,86.68
2019-03-12T04:40:50.496Z,86.74
2019-03-12T04:41:50.484Z,86.78
2019-03-12T04:42:50.502Z,87.09
2019-03-12T04:43:50.515Z,87.26
2019-03-12T04:44:50.445Z,87.05
2019-03-12T04:45:50.441Z,87.05
2019-03-12T04:46:50.425Z,87.47
2019-03-12T04:47:50.408Z,87.09
2019-03-12T04:48:50.410Z,87.19
2019-03-12T04:49:50.492Z,86.68
2019-03-12T04:50:50.381Z,86.95
2019-03-12T04:51:50.373Z,86.99
2019-03-12T04:52:50.368Z,86.26
2019-03-12T04:53:50.346Z,86.68
2019-03-12T04:54:50.419Z,85.39
2019-03-12T04:55:50.338Z,85.74
2019-03-12T04:56:50.314Z,85.33
2019-03-12T04:57:50.306Z,85.71
2019-03-12T04:58:50.295Z,86.16
2019-03-12T04:59:50.287Z,86.57
2019-03-12T05:00:50.339Z,85.71
2019-03-12T05:01:50.335Z,86.33
2019-03-12T05:02:50.363Z,85.95
2019-03-12T05:03:50.247Z,85.64
2019-03-12T05:04:50.230Z,85.50
2019-03-12T05:05:50.246Z,85.53
2019-03-12T05:06:50.291Z,85.50
2019-03-12T05:07:50.208Z,85.53
2019-03-12T05:08:50.262Z,86.22
2019-03-12T05:09:50.168Z,85.33
2019-03-12T05:10:50.171Z,85.64
2019-03-12T05:11:50.249Z,85.85
2019-03-12T05:12:50.142Z,85.91
2019-03-12T05:13:50.152Z,86.02
2019-03-12T05:14:50.123Z,86.36
2019-03-12T05:15:50.102Z,85.71
2019-03-12T05:16:50.094Z,85.50
2019-03-12T05:17:50.256Z,85.74
2019-03-12T05:18:50.097Z,85.53
2019-03-12T05:19:50.117Z,85.22
2019-03-12T05:20:50.066Z,84.60
2019-03-12T05:21:50.043Z,84.39
2019-03-12T05:22:50.039Z,84.19
2019-03-12T05:23:50.103Z,84.81
2019-03-12T05:24:50.016Z,85.02
2019-03-12T05:25:49.994Z,84.46
2019-03-12T05:26:49.982Z,84.88
2019-03-12T05:27:49.978Z,84.70
2019-03-12T05:28:50.049Z,84.70
2019-03-12T05:29:49.949Z,84.98
2019-03-12T05:30:49.935Z,84.36
2019-03-12T05:31:49.947Z,83.53
2019-03-12T05:32:49.919Z,83.36
2019-03-12T05:33:49.985Z,83.15
2019-03-12T05:34:49.965Z,83.15
2019-03-12T05:35:49.899Z,83.32
2019-03-12T05:36:49.930Z,83.15
2019-03-12T05:37:49.904Z,82.63
2019-03-12T05:38:49.857Z,82.73
2019-03-12T05:39:49.953Z,82.94
2019-03-12T05:40:49.911Z,83.25
2019-03-12T05:41:49.829Z,83.67
2019-03-12T05:42:49.808Z,83.63
2019-03-12T05:43:49.791Z,83.01
2019-03-12T05:44:49.792Z,82.73
2019-03-12T05:45:49.941Z,82.32
2019-03-12T05:46:49.763Z,82.49
2019-03-12T05:47:49.755Z,82.53
2019-03-12T05:48:49.751Z,82.73
2019-03-12T05:49:49.795Z,81.66
2019-03-12T05:50:49.727Z,80.24
2019-03-12T05:51:49.705Z,79.93
2019-03-12T05:52:49.784Z,79.61
2019-03-12T05:53:49.723Z,79.20
2019-03-12T05:54:49.686Z,78.99
2019-03-12T05:55:49.798Z,79.72
2019-03-12T05:56:49.745Z,80.52
2019-03-12T05:57:49.642Z,80.45
2019-03-12T05:58:49.629Z,80.45
2019-03-12T05:59:49.616Z,80.87
2019-03-12T06:00:49.613Z,81.18
2019-03-12T06:01:49.604Z,80.52
2019-03-12T06:02:49.665Z,80.52
2019-03-12T06:03:49.574Z,80.55
2019-03-12T06:04:49.570Z,80.83
2019-03-12T06:05:49.561Z,80.73
2019-03-12T06:06:49.546Z,81.04
2019-03-12T06:07:49.550Z,80.93
2019-03-12T06:08:49.716Z,80.52
2019-03-12T06:09:49.559Z,80.83
2019-03-12T06:10:49.501Z,81.35
2019-03-12T06:11:49.484Z,80.62
2019-03-12T06:12:49.481Z,80.62
2019-03-12T06:13:49.586Z,80.73
2019-03-12T06:14:49.537Z,80.93
2019-03-12T06:15:49.503Z,80.41
2019-03-12T06:16:49.469Z,81.14
2019-03-12T06:17:49.474Z,81.14
2019-03-12T06:18:49.440Z,81.24
2019-03-12T06:19:49.539Z,80.73
2019-03-12T06:20:49.507Z,81.04
2019-03-12T06:21:49.375Z,81.14
2019-03-12T06:22:49.370Z,80.73
2019-03-12T06:23:49.362Z,80.68
2019-03-12T06:24:49.352Z,80.58
2019-03-12T06:25:49.382Z,80.58
2019-03-12T06:26:49.463Z,80.79
2019-03-12T06:27:49.310Z,79.75
2019-03-12T06:28:49.299Z,79.34
2019-03-12T06:29:49.308Z,77.44
2019-03-12T06:30:49.342Z,77.12
2019-03-12T06:31:49.262Z,76.29
2019-03-12T06:32:49.251Z,77.16
2019-03-12T06:33:49.246Z,77.12
2019-03-12T06:34:49.256Z,77.16
2019-03-12T06:35:49.221Z,76.50
2019-03-12T06:36:49.287Z,77.44
2019-03-12T06:37:49.215Z,77.02
2019-03-12T06:38:49.193Z,76.43
2019-03-12T06:39:49.185Z,75.78
2019-03-12T06:40:49.254Z,76.40
2019-03-12T06:41:49.156Z,77.47
2019-03-12T06:42:49.288Z,77.23
2019-03-12T06:43:49.132Z,77.23
2019-03-12T06:44:49.129Z,77.33
2019-03-12T06:45:49.119Z,77.44
2019-03-12T06:46:49.101Z,77.12
2019-03-12T06:47:49.101Z,77.09
2019-03-12T06:48:49.199Z,77.33
2019-03-12T06:49:49.079Z,77.75
2019-03-12T06:50:49.135Z,77.40
2019-03-12T06:51:49.052Z,78.06
2019-03-12T06:52:49.039Z,77.64
2019-03-12T06:53:49.033Z,77.81
2019-03-12T06:54:50.095Z,77.71
2019-03-12T06:55:49.071Z,77.05
2019-03-12T06:56:48.996Z,76.40
2019-03-12T06:57:48.987Z,76.09
2019-03-12T06:58:48.972Z,75.95
2019-03-12T06:59:48.961Z,75.43
2019-03-12T07:00:49.044Z,74.60
2019-03-12T07:01:48.999Z,74.40
2019-03-12T07:02:48.931Z,74.60
2019-03-12T07:03:48.926Z,74.71
2019-03-12T07:04:48.907Z,74.40
2019-03-12T07:05:48.898Z,75.32
2019-03-12T07:06:48.964Z,75.63
2019-03-12T07:07:48.871Z,76.19
2019-03-12T07:08:48.887Z,75.88
2019-03-12T07:09:48.851Z,77.47
2019-03-12T07:10:48.841Z,77.47
2019-03-12T07:11:48.918Z,77.67
2019-03-12T07:12:48.825Z,78.12
2019-03-12T07:13:48.805Z,78.09
2019-03-12T07:14:48.875Z,77.88
2019-03-12T07:15:49.176Z,78.54
2019-03-12T07:16:48.792Z,79.06
2019-03-12T07:17:48.835Z,79.06
2019-03-12T07:18:48.750Z,79.88
2019-03-12T07:19:48.820Z,80.19
2019-03-12T07:20:48.741Z,80.05
2019-03-12T07:21:48.721Z,79.78
2019-03-12T07:22:48.710Z,80.26
2019-03-12T07:23:48.789Z,80.05
2019-03-12T07:24:48.711Z,79.91
2019-03-12T07:25:50.940Z,80.05
2019-03-12T07:26:48.746Z,80.57
2019-03-12T07:27:48.658Z,80.57
2019-03-12T07:28:50.539Z,81.51
2019-03-12T07:29:48.655Z,81.65
2019-03-12T07:30:48.643Z,82.06
2019-03-12T07:31:48.760Z,82.27
2019-03-12T07:32:48.598Z,82.27
2019-03-12T07:33:48.677Z,82.37
2019-03-12T07:34:48.584Z,82.06
2019-03-12T07:35:48.567Z,82.23
2019-03-12T07:36:48.800Z,81.51
2019-03-12T07:37:48.691Z,82.06
2019-03-12T07:38:48.563Z,82.06
2019-03-12T07:39:48.529Z,81.71
2019-03-12T07:40:48.516Z,81.61
2019-03-12T07:41:48.560Z,81.68
2019-03-12T07:42:48.489Z,81.20
2019-03-12T07:43:48.487Z,80.99
2019-03-12T07:44:48.476Z,81.26
2019-03-12T07:45:48.536Z,79.91
2019-03-12T07:46:48.454Z,80.50
2019-03-12T07:47:48.461Z,79.47
2019-03-12T07:48:48.457Z,75.73
2019-03-12T07:49:48.503Z,69.77
2019-03-12T07:50:48.542Z,67.13
2019-03-12T07:51:48.392Z,68.63
2019-03-12T07:52:48.399Z,69.73
2019-03-12T07:53:58.977Z,70.79
2019-03-12T07:54:49.368Z,70.92
2019-03-12T07:55:48.349Z,72.30
2019-03-12T07:56:48.477Z,72.37
2019-03-12T07:57:48.356Z,72.16
2019-03-12T07:58:48.316Z,71.72
2019-03-12T07:59:48.400Z,71.95
2019-03-12T08:00:48.296Z,71.85
2019-03-12T08:01:48.371Z,73.12
2019-03-12T08:02:48.296Z,73.57
2019-03-12T08:03:48.262Z,73.33
2019-03-12T08:04:48.278Z,73.50
2019-03-12T08:05:48.288Z,72.88
2019-03-12T08:06:48.229Z,74.08
2019-03-12T08:07:48.363Z,75.01
2019-03-12T08:08:48.214Z,74.91
2019-03-12T08:09:48.198Z,75.22
2019-03-12T08:10:48.196Z,75.87
2019-03-12T08:11:48.182Z,76.43
2019-03-12T08:12:48.166Z,77.04
2019-03-12T08:13:48.239Z,77.67
2019-03-12T08:14:48.144Z,77.50
2019-03-12T08:15:50.477Z,79.15
2019-03-12T08:16:48.120Z,79.29
2019-03-12T08:17:48.125Z,80.11
2019-03-12T08:18:48.104Z,80.53
2019-03-12T08:19:48.193Z,80.94
2019-03-12T08:20:48.081Z,81.35
2019-03-12T08:21:49.747Z,81.05
2019-03-12T08:22:48.055Z,80.29
2019-03-12T08:23:48.087Z,79.77
2019-03-12T08:24:48.092Z,80.15
2019-03-12T08:25:48.098Z,79.83
2019-03-12T08:26:48.033Z,79.83
2019-03-12T08:27:48.011Z,79.80
2019-03-12T08:28:47.997Z,79.63
2019-03-12T08:29:47.985Z,79.01
2019-03-12T08:30:48.162Z,78.91
2019-03-12T08:31:47.955Z,78.97
2019-03-12T08:32:47.966Z,78.35
2019-03-12T08:33:51.024Z,77.28
2019-03-12T08:34:47.922Z,77.59
2019-03-12T08:35:47.925Z,76.63
2019-03-12T08:36:48.011Z,75.74
2019-03-12T08:37:47.927Z,75.74
2019-03-12T08:38:47.888Z,76.56
2019-03-12T08:39:47.870Z,77.18
2019-03-12T08:40:52.576Z,77.08
2019-03-12T08:41:48.937Z,77.28
2019-03-12T08:42:54.568Z,77.08
2019-03-12T08:43:48.830Z,76.87
2019-03-12T08:44:47.836Z,77.18
2019-03-12T08:45:48.850Z,76.77
2019-03-12T08:46:47.804Z,77.42
2019-03-12T08:47:47.855Z,76.81
2019-03-12T08:48:47.779Z,77.11
2019-03-12T08:49:47.779Z,77.94
2019-03-12T08:50:47.759Z,77.84
2019-03-12T08:51:47.750Z,77.84
2019-03-12T08:52:47.857Z,77.32
2019-03-12T08:53:47.718Z,77.49
2019-03-12T08:54:54.123Z,77.49
2019-03-12T08:55:48.724Z,76.98
2019-03-12T08:56:47.714Z,76.15
2019-03-12T08:57:47.721Z,77.08
2019-03-12T08:58:47.734Z,76.46
2019-03-12T08:59:47.679Z,76.39
2019-03-12T09:00:47.695Z,76.08
2019-03-12T09:01:47.745Z,76.60
2019-03-12T09:02:47.620Z,76.70
2019-03-12T09:03:47.707Z,76.81
2019-03-12T09:04:47.771Z,75.95
2019-03-12T09:05:47.599Z,76.25
2019-03-12T09:06:47.591Z,75.60
2019-03-12T09:07:47.575Z,75.18
2019-03-12T09:08:47.565Z,74.77
2019-03-12T09:09:47.771Z,74.26
2019-03-12T09:10:47.546Z,73.19
2019-03-12T09:11:47.588Z,72.99
2019-03-12T09:12:47.515Z,70.97
2019-03-12T09:13:47.566Z,67.49
2019-03-12T09:14:47.514Z,61.57
2019-03-12T09:15:47.721Z,61.06
2019-03-12T09:16:47.509Z,61.11
2019-03-12T09:17:47.559Z,63.43
2019-03-12T09:18:47.472Z,64.28
2019-03-12T09:19:47.479Z,63.12
2019-03-12T09:20:47.534Z,63.05
2019-03-12T09:21:47.411Z,62.81
2019-03-12T09:22:47.402Z,63.12
2019-03-12T09:23:47.531Z,62.56
2019-03-12T09:24:47.375Z,64.37
2019-03-12T09:25:47.367Z,65.63
2019-03-12T09:26:47.357Z,65.83
2019-03-12T09:27:47.344Z,64.64
2019-03-12T09:28:47.342Z,64.64
2019-03-12T09:29:47.406Z,63.82
2019-03-12T09:30:47.310Z,64.26
2019-03-12T09:31:47.298Z,65.42
2019-03-12T09:32:47.298Z,64.78
2019-03-12T09:33:47.283Z,64.31
2019-03-12T09:34:47.390Z,64.19
2019-03-12T09:35:47.251Z,66.20
2019-03-12T09:36:47.249Z,67.26
2019-03-12T09:37:47.231Z,68.63
2019-03-12T09:38:47.225Z,68.70
2019-03-12T09:39:47.214Z,66.89
2019-03-12T09:40:47.256Z,62.92
2019-03-12T09:41:47.255Z,60.30
2019-03-12T09:42:47.187Z,57.81
2019-03-12T09:43:48.315Z,50.48
2019-03-12T09:44:47.153Z,40.77
2019-03-12T09:45:47.149Z,35.68
2019-03-12T09:46:47.216Z,32.31
2019-03-12T09:47:47.118Z,32.62
2019-03-12T09:48:47.112Z,32.37
2019-03-12T09:49:47.100Z,33.75
2019-03-12T09:50:47.090Z,33.79
2019-03-12T09:51:47.195Z,35.03
2019-03-12T09:52:47.060Z,37.97
2019-03-12T09:53:47.059Z,40.81
2019-03-12T09:54:47.045Z,42.13
2019-03-12T09:55:47.030Z,42.43
2019-03-12T09:56:47.128Z,44.12
2019-03-12T09:57:47.033Z,48.27
2019-03-12T09:58:46.997Z,47.77
2019-03-12T09:59:47.005Z,47.90
2019-03-12T10:00:47.010Z,47.42
2019-03-12T10:01:46.999Z,46.48
2019-03-12T10:02:47.111Z,46.48
2019-03-12T10:03:46.973Z,45.76
2019-03-12T10:04:46.933Z,44.10
2019-03-12T10:05:46.928Z,44.26
2019-03-12T10:06:46.925Z,43.71
2019-03-12T10:07:46.903Z,42.07
2019-03-12T10:08:46.965Z,44.65
2019-03-12T10:09:46.883Z,48.32
2019-03-12T10:10:46.877Z,49.22
2019-03-12T10:11:46.945Z,50.43
2019-03-12T10:12:46.969Z,51.09
2019-03-12T10:13:46.838Z,53.11
2019-03-12T10:15:10.633Z,53.87
2019-03-12T10:15:46.808Z,55.74
2019-03-12T10:16:46.818Z,55.64
2019-03-12T10:17:46.811Z,56.13
2019-03-12T10:18:46.869Z,54.87
2019-03-12T10:19:46.771Z,53.64
2019-03-12T10:20:46.759Z,50.48
2019-03-12T10:21:46.748Z,48.77
2019-03-12T10:22:46.747Z,48.90
2019-03-12T10:23:46.799Z,49.18
2019-03-12T10:24:46.727Z,48.69
2019-03-12T10:25:46.711Z,47.94
2019-03-12T10:26:46.703Z,48.42
2019-03-12T10:27:46.679Z,46.67
2019-03-12T10:28:46.759Z,45.76
2019-03-12T10:29:46.848Z,43.96
2019-03-12T10:30:46.700Z,42.94
2019-03-12T10:31:46.633Z,43.37
2019-03-12T10:32:46.636Z,42.63
2019-03-12T10:33:46.765Z,43.43
2019-03-12T10:34:46.646Z,45.45
2019-03-12T10:35:46.597Z,48.10
2019-03-12T10:36:46.583Z,49.48
2019-03-12T10:37:46.569Z,49.09
2019-03-12T10:38:46.558Z,50.78
2019-03-12T10:39:46.635Z,51.64
2019-03-12T10:40:46.534Z,52.80
2019-03-12T10:41:46.522Z,48.73
2019-03-12T10:42:46.507Z,43.47
2019-03-12T10:43:46.502Z,38.43
2019-03-12T10:44:46.488Z,39.87
2019-03-12T10:45:46.562Z,43.43
2019-03-12T10:46:46.473Z,43.96
2019-03-12T10:47:46.459Z,45.10
2019-03-12T10:48:46.445Z,41.91
2019-03-12T10:49:46.438Z,38.87
2019-03-12T10:50:46.514Z,39.39
2019-03-12T10:51:46.421Z,35.75
2019-03-12T10:52:46.403Z,34.42
2019-03-12T10:53:46.384Z,33.78
2019-03-12T10:54:46.400Z,31.48
2019-03-12T10:55:46.368Z,31.66
2019-03-12T10:56:46.476Z,29.41
2019-03-12T10:57:46.354Z,28.29
2019-03-12T10:58:46.362Z,28.22
2019-03-12T10:59:46.321Z,27.22
2019-03-12T11:00:46.347Z,28.19
2019-03-12T11:01:46.302Z,29.21
2019-03-12T11:02:46.388Z,29.53
2019-03-12T11:03:46.277Z,29.66
2019-03-12T11:04:46.269Z,32.53
2019-03-12T11:05:46.544Z,36.39
2019-03-12T11:06:46.287Z,35.68
2019-03-12T11:07:46.328Z,34.07
2019-03-12T11:08:46.250Z,30.77
2019-03-12T11:09:46.239Z,29.82
2019-03-12T11:10:46.202Z,29.52
2019-03-12T11:11:46.194Z,31.27
2019-03-12T11:12:46.184Z,34.66
2019-03-12T11:13:46.280Z,38.20
2019-03-12T11:14:46.176Z,36.79
2019-03-12T11:15:46.187Z,33.16
2019-03-12T11:16:46.146Z,32.03
2019-03-12T11:17:49.936Z,31.00
2019-03-12T11:18:46.260Z,33.81
2019-03-12T11:19:46.117Z,32.86
2019-03-12T11:20:46.111Z,31.96
2019-03-12T11:21:46.125Z,35.46
2019-03-12T11:22:46.068Z,38.41
2019-03-12T11:23:46.125Z,38.49
2019-03-12T11:24:46.148Z,36.27
2019-03-12T11:25:46.052Z,34.13
2019-03-12T11:26:46.040Z,31.60
2019-03-12T11:27:46.029Z,30.40
2019-03-12T11:28:46.011Z,30.60
2019-03-12T11:29:45.995Z,31.53
2019-03-12T11:30:46.128Z,30.80
2019-03-12T11:31:45.983Z,31.87
2019-03-12T11:32:45.965Z,30.86
2019-03-12T11:33:45.978Z,30.73
2019-03-12T11:34:45.961Z,30.74
2019-03-12T11:35:47.021Z,31.20
2019-03-12T11:36:45.935Z,32.43
2019-03-12T11:37:45.923Z,32.04
2019-03-12T11:38:45.897Z,33.58
2019-03-12T11:39:45.931Z,34.56
2019-03-12T11:40:45.895Z,36.88
2019-03-12T11:41:45.963Z,36.75
2019-03-12T11:42:46.084Z,34.42
2019-03-12T11:43:45.869Z,33.67
2019-03-12T11:44:45.856Z,35.68
2019-03-12T11:45:45.820Z,35.26
2019-03-12T11:46:46.311Z,35.68
2019-03-12T11:47:46.259Z,36.43
2019-03-12T11:48:45.801Z,37.34
2019-03-12T11:49:45.860Z,38.27
2019-03-12T11:50:45.850Z,38.17
2019-03-12T11:51:45.777Z,35.66
2019-03-12T11:52:54.830Z,37.27
2019-03-12T11:53:46.817Z,37.85
2019-03-12T11:54:45.891Z,38.89
2019-03-12T11:55:45.859Z,39.86
2019-03-12T11:56:46.233Z,40.41
2019-03-12T11:57:45.719Z,42.06
2019-03-12T11:58:45.761Z,43.41
2019-03-12T11:59:45.676Z,43.71
2019-03-12T12:00:45.673Z,43.79
2019-03-12T12:01:45.696Z,43.67
2019-03-12T12:02:45.636Z,39.26
2019-03-12T12:03:45.737Z,35.57
2019-03-12T12:04:45.615Z,34.28
2019-03-12T12:05:45.738Z,32.27
2019-03-12T12:06:45.594Z,31.38
2019-03-12T12:07:45.603Z,32.55
2019-03-12T12:08:45.578Z,34.23
2019-03-12T12:09:45.551Z,36.46
2019-03-12T12:10:45.558Z,37.10
2019-03-12T12:11:45.602Z,38.38
2019-03-12T12:12:45.597Z,39.65
2019-03-12T12:13:45.534Z,41.33
2019-03-12T12:14:45.560Z,42.88
2019-03-12T12:15:45.592Z,43.18
2019-03-12T12:16:45.618Z,41.05
2019-03-12T12:17:49.078Z,37.87
2019-03-12T12:18:45.510Z,35.13
2019-03-12T12:19:45.507Z,33.91
2019-03-12T12:20:45.466Z,31.96
2019-03-12T12:21:45.508Z,30.71
2019-03-12T12:22:45.441Z,31.38
2019-03-12T12:23:45.679Z,32.96
2019-03-12T12:24:45.463Z,32.44
2019-03-12T12:25:45.423Z,32.48
2019-03-12T12:26:45.400Z,30.51
2019-03-12T12:27:45.492Z,29.79
2019-03-12T12:28:45.433Z,29.95
2019-03-12T12:29:45.509Z,29.22
2019-03-12T12:30:45.380Z,31.66
2019-03-12T12:31:47.495Z,34.90
2019-03-12T12:32:45.326Z,36.61
2019-03-12T12:33:45.319Z,37.94
2019-03-12T12:34:45.361Z,35.92
2019-03-12T12:35:45.348Z,34.50
2019-03-12T12:36:45.260Z,33.50
2019-03-12T12:37:45.334Z,35.16
2019-03-12T12:38:45.238Z,33.58
2019-03-12T12:39:45.240Z,33.55
2019-03-12T12:40:45.313Z,32.15
2019-03-12T12:41:45.209Z,33.29
2019-03-12T12:42:45.193Z,34.99
2019-03-12T12:43:45.206Z,35.19
2019-03-12T12:44:45.166Z,37.79
2019-03-12T12:45:45.176Z,37.17
2019-03-12T12:46:45.355Z,36.71
2019-03-12T12:47:45.135Z,35.85
2019-03-12T12:48:45.341Z,37.72
2019-03-12T12:49:45.114Z,36.12
2019-03-12T12:50:45.110Z,35.82
2019-03-12T12:51:45.091Z,34.24
2019-03-12T12:52:45.182Z,33.70